sensor_id;sensor_type;location;lat;lon;timestamp;pressure;altitude;pressure_sealevel;temperature;humidity
23261;BME280;11799;47.740;-3.390;2023-11-18T00:00:00;102016.44;;;12.07;100.00
23261;BME280;11799;47.740;-3.390;2023-11-18T00:02:25;102023.53;;;12.06;100.00
23261;BME280;11799;47.740;-3.390;2023-11-18T00:04:51;102012.63;;;12.11;100.00
23261;BME280;11799;47.740;-3.390;2023-11-18T00:07:17;102015.69;;;12.17;100.00
23261;BME280;11799;47.740;-3.390;2023-11-18T00:09:42;102004.59;;;12.12;100.00
23261;BME280;11799;47.740;-3.390;2023-11-18T00:12:12;102018.16;;;12.20;100.00
23261;BME280;11799;47.740;-3.390;2023-11-18T00:14:37;101998.56;;;12.23;100.00
23261;BME280;11799;47.740;-3.390;2023-11-18T00:17:03;101992.97;;;12.28;100.00
23261;BME280;11799;47.740;-3.390;2023-11-18T00:19:29;101988.50;;;12.28;100.00
23261;BME280;11799;47.740;-3.390;2023-11-18T00:21:55;101989.47;;;12.27;100.00
23261;BME280;11799;47.740;-3.390;2023-11-18T00:24:20;101988.41;;;12.30;100.00
23261;BME280;11799;47.740;-3.390;2023-11-18T00:26:46;101957.66;;;12.14;100.00
23261;BME280;11799;47.740;-3.390;2023-11-18T00:29:12;101977.72;;;12.31;100.00
23261;BME280;11799;47.740;-3.390;2023-11-18T00:31:37;101966.91;;;12.34;100.00
23261;BME280;11799;47.740;-3.390;2023-11-18T00:34:03;101956.72;;;12.28;100.00
23261;BME280;11799;47.740;-3.390;2023-11-18T00:36:29;101946.16;;;12.41;100.00
23261;BME280;11799;47.740;-3.390;2023-11-18T00:38:54;101948.72;;;12.42;100.00
23261;BME280;11799;47.740;-3.390;2023-11-18T00:41:20;101946.81;;;12.44;100.00
23261;BME280;11799;47.740;-3.390;2023-11-18T00:43:46;101937.81;;;12.47;100.00
23261;BME280;11799;47.740;-3.390;2023-11-18T00:46:12;101952.66;;;12.49;100.00
23261;BME280;11799;47.740;-3.390;2023-11-18T00:48:38;101953.28;;;12.53;100.00
23261;BME280;11799;47.740;-3.390;2023-11-18T00:51:05;101944.28;;;12.55;100.00
23261;BME280;11799;47.740;-3.390;2023-11-18T00:53:31;101940.88;;;12.53;100.00
23261;BME280;11799;47.740;-3.390;2023-11-18T00:55:56;101937.69;;;12.48;100.00
23261;BME280;11799;47.740;-3.390;2023-11-18T00:58:22;101951.91;;;12.60;100.00
23261;BME280;11799;47.740;-3.390;2023-11-18T01:00:48;101934.00;;;12.64;100.00
23261;BME280;11799;47.740;-3.390;2023-11-18T01:03:13;101921.19;;;12.70;100.00
23261;BME280;11799;47.740;-3.390;2023-11-18T01:05:39;101908.16;;;12.67;100.00
23261;BME280;11799;47.740;-3.390;2023-11-18T01:08:04;101899.25;;;12.68;100.00
23261;BME280;11799;47.740;-3.390;2023-11-18T01:10:30;101860.56;;;12.53;100.00
23261;BME280;11799;47.740;-3.390;2023-11-18T01:12:56;101900.69;;;12.72;100.00
23261;BME280;11799;47.740;-3.390;2023-11-18T01:15:24;101904.09;;;12.74;100.00
23261;BME280;11799;47.740;-3.390;2023-11-18T01:17:49;101903.22;;;12.74;100.00
23261;BME280;11799;47.740;-3.390;2023-11-18T01:20:15;101896.03;;;12.76;100.00
23261;BME280;11799;47.740;-3.390;2023-11-18T01:22:46;101895.81;;;12.79;100.00
23261;BME280;11799;47.740;-3.390;2023-11-18T01:25:14;101889.44;;;12.81;100.00
23261;BME280;11799;47.740;-3.390;2023-11-18T01:27:42;101879.81;;;12.80;100.00
23261;BME280;11799;47.740;-3.390;2023-11-18T01:30:08;101870.88;;;12.81;100.00
23261;BME280;11799;47.740;-3.390;2023-11-18T01:32:35;101872.25;;;12.87;100.00
23261;BME280;11799;47.740;-3.390;2023-11-18T01:35:01;101864.00;;;12.92;100.00
23261;BME280;11799;47.740;-3.390;2023-11-18T01:37:27;101864.09;;;12.90;100.00
23261;BME280;11799;47.740;-3.390;2023-11-18T01:39:52;101862.06;;;12.94;100.00
23261;BME280;11799;47.740;-3.390;2023-11-18T01:42:18;101858.56;;;12.93;100.00
23261;BME280;11799;47.740;-3.390;2023-11-18T01:44:43;101864.72;;;12.94;100.00
23261;BME280;11799;47.740;-3.390;2023-11-18T01:47:09;101853.16;;;12.95;100.00
23261;BME280;11799;47.740;-3.390;2023-11-18T01:49:38;101865.34;;;12.97;100.00
23261;BME280;11799;47.740;-3.390;2023-11-18T01:52:08;101866.84;;;13.01;100.00
23261;BME280;11799;47.740;-3.390;2023-11-18T01:54:36;101866.63;;;13.04;100.00
23261;BME280;11799;47.740;-3.390;2023-11-18T01:57:03;101857.72;;;13.05;100.00
23261;BME280;11799;47.740;-3.390;2023-11-18T01:59:32;101858.88;;;13.01;100.00
23261;BME280;11799;47.740;-3.390;2023-11-18T02:01:59;101870.13;;;13.05;100.00
23261;BME280;11799;47.740;-3.390;2023-11-18T02:04:25;101871.69;;;13.07;100.00
23261;BME280;11799;47.740;-3.390;2023-11-18T02:06:52;101856.53;;;13.09;100.00
23261;BME280;11799;47.740;-3.390;2023-11-18T02:09:19;101856.53;;;13.09;100.00
23261;BME280;11799;47.740;-3.390;2023-11-18T02:14:42;101841.69;;;13.07;100.00
23261;BME280;11799;47.740;-3.390;2023-11-18T02:17:09;101827.59;;;12.94;100.00
23261;BME280;11799;47.740;-3.390;2023-11-18T02:19:39;101857.38;;;13.10;100.00
23261;BME280;11799;47.740;-3.390;2023-11-18T02:22:06;101855.78;;;13.07;100.00
23261;BME280;11799;47.740;-3.390;2023-11-18T02:24:33;101844.97;;;13.10;100.00
23261;BME280;11799;47.740;-3.390;2023-11-18T02:27:03;101839.66;;;13.10;100.00
23261;BME280;11799;47.740;-3.390;2023-11-18T02:29:39;101847.41;;;13.13;100.00
23261;BME280;11799;47.740;-3.390;2023-11-18T02:32:28;101846.78;;;13.10;100.00
23261;BME280;11799;47.740;-3.390;2023-11-18T02:37:31;101851.66;;;13.16;100.00
23261;BME280;11799;47.740;-3.390;2023-11-18T02:40:04;101856.09;;;13.15;100.00
23261;BME280;11799;47.740;-3.390;2023-11-18T02:42:40;101848.06;;;13.17;100.00
23261;BME280;11799;47.740;-3.390;2023-11-18T02:45:09;101839.25;;;13.16;100.00
23261;BME280;11799;47.740;-3.390;2023-11-18T02:47:38;101843.47;;;13.19;100.00
23261;BME280;11799;47.740;-3.390;2023-11-18T02:50:06;101834.97;;;13.14;100.00
23261;BME280;11799;47.740;-3.390;2023-11-18T02:52:34;101834.13;;;13.13;100.00
23261;BME280;11799;47.740;-3.390;2023-11-18T02:55:00;101814.63;;;13.14;100.00
23261;BME280;11799;47.740;-3.390;2023-11-18T02:57:26;101829.66;;;13.27;100.00
23261;BME280;11799;47.740;-3.390;2023-11-18T02:59:51;101821.81;;;13.25;100.00
23261;BME280;11799;47.740;-3.390;2023-11-18T03:02:17;101806.75;;;13.26;100.00
23261;BME280;11799;47.740;-3.390;2023-11-18T03:04:42;101803.47;;;13.22;100.00
23261;BME280;11799;47.740;-3.390;2023-11-18T03:07:10;101808.19;;;13.30;100.00
23261;BME280;11799;47.740;-3.390;2023-11-18T03:09:35;101810.00;;;13.29;100.00
23261;BME280;11799;47.740;-3.390;2023-11-18T03:12:03;101796.41;;;13.34;100.00
23261;BME280;11799;47.740;-3.390;2023-11-18T03:14:29;101799.38;;;13.29;100.00
23261;BME280;11799;47.740;-3.390;2023-11-18T03:16:54;101786.63;;;13.34;100.00
23261;BME280;11799;47.740;-3.390;2023-11-18T03:19:21;101785.78;;;13.34;100.00
23261;BME280;11799;47.740;-3.390;2023-11-18T03:21:53;101764.44;;;13.35;100.00
23261;BME280;11799;47.740;-3.390;2023-11-18T03:24:18;101768.91;;;13.35;100.00
23261;BME280;11799;47.740;-3.390;2023-11-18T03:26:44;101777.50;;;13.38;100.00
23261;BME280;11799;47.740;-3.390;2023-11-18T03:29:10;101762.41;;;13.39;100.00
23261;BME280;11799;47.740;-3.390;2023-11-18T03:31:38;101759.88;;;13.37;100.00
23261;BME280;11799;47.740;-3.390;2023-11-18T03:34:04;101754.44;;;13.39;100.00
23261;BME280;11799;47.740;-3.390;2023-11-18T03:36:29;101761.44;;;13.40;100.00
23261;BME280;11799;47.740;-3.390;2023-11-18T03:38:55;101744.91;;;13.36;100.00
23261;BME280;11799;47.740;-3.390;2023-11-18T03:41:20;101762.06;;;13.43;100.00
23261;BME280;11799;47.740;-3.390;2023-11-18T03:43:49;101753.03;;;13.46;100.00
23261;BME280;11799;47.740;-3.390;2023-11-18T03:46:15;101759.81;;;13.50;100.00
23261;BME280;11799;47.740;-3.390;2023-11-18T03:48:41;101758.47;;;13.44;100.00
23261;BME280;11799;47.740;-3.390;2023-11-18T03:51:09;101764.25;;;13.49;100.00
23261;BME280;11799;47.740;-3.390;2023-11-18T03:53:35;101741.31;;;13.37;100.00
23261;BME280;11799;47.740;-3.390;2023-11-18T03:56:00;101762.34;;;13.51;100.00
23261;BME280;11799;47.740;-3.390;2023-11-18T03:58:28;101761.63;;;13.49;100.00
23261;BME280;11799;47.740;-3.390;2023-11-18T04:00:53;101761.50;;;13.51;100.00
23261;BME280;11799;47.740;-3.390;2023-11-18T04:03:19;101758.00;;;13.50;100.00
23261;BME280;11799;47.740;-3.390;2023-11-18T04:05:44;101749.81;;;13.53;100.00
23261;BME280;11799;47.740;-3.390;2023-11-18T04:08:10;101756.06;;;13.52;100.00
23261;BME280;11799;47.740;-3.390;2023-11-18T04:10:38;101735.81;;;13.51;100.00
23261;BME280;11799;47.740;-3.390;2023-11-18T04:13:03;101731.13;;;13.55;100.00
23261;BME280;11799;47.740;-3.390;2023-11-18T04:15:29;101739.06;;;13.55;100.00
23261;BME280;11799;47.740;-3.390;2023-11-18T04:17:55;101743.31;;;13.58;100.00
23261;BME280;11799;47.740;-3.390;2023-11-18T04:20:20;101742.97;;;13.62;100.00
23261;BME280;11799;47.740;-3.390;2023-11-18T04:22:46;101738.63;;;13.61;100.00
23261;BME280;11799;47.740;-3.390;2023-11-18T04:25:12;101743.94;;;13.61;100.00
23261;BME280;11799;47.740;-3.390;2023-11-18T04:27:40;101745.63;;;13.62;100.00
23261;BME280;11799;47.740;-3.390;2023-11-18T04:30:07;101743.81;;;13.63;100.00
23261;BME280;11799;47.740;-3.390;2023-11-18T04:32:34;101743.94;;;13.61;100.00
23261;BME280;11799;47.740;-3.390;2023-11-18T04:35:00;101744.44;;;13.66;100.00
23261;BME280;11799;47.740;-3.390;2023-11-18T04:37:33;101747.81;;;13.68;100.00
23261;BME280;11799;47.740;-3.390;2023-11-18T04:39:59;101745.50;;;13.64;100.00
23261;BME280;11799;47.740;-3.390;2023-11-18T04:42:24;101746.97;;;13.68;100.00
23261;BME280;11799;47.740;-3.390;2023-11-18T04:44:50;101753.13;;;13.68;100.00
23261;BME280;11799;47.740;-3.390;2023-11-18T04:47:16;101756.38;;;13.72;100.00
23261;BME280;11799;47.740;-3.390;2023-11-18T04:49:45;101740.69;;;13.69;100.00
23261;BME280;11799;47.740;-3.390;2023-11-18T04:52:11;101744.19;;;13.69;100.00
23261;BME280;11799;47.740;-3.390;2023-11-18T04:54:36;101742.38;;;13.70;100.00
23261;BME280;11799;47.740;-3.390;2023-11-18T04:57:02;101750.97;;;13.73;100.00
23261;BME280;11799;47.740;-3.390;2023-11-18T04:59:27;101745.75;;;13.72;100.00
23261;BME280;11799;47.740;-3.390;2023-11-18T05:01:53;101736.84;;;13.73;100.00
23261;BME280;11799;47.740;-3.390;2023-11-18T05:04:19;101736.00;;;13.72;100.00
23261;BME280;11799;47.740;-3.390;2023-11-18T05:06:44;101728.03;;;13.72;100.00
23261;BME280;11799;47.740;-3.390;2023-11-18T05:09:10;101705.94;;;13.72;100.00
23261;BME280;11799;47.740;-3.390;2023-11-18T05:11:36;101713.78;;;13.73;100.00
23261;BME280;11799;47.740;-3.390;2023-11-18T05:14:01;101710.28;;;13.73;100.00
23261;BME280;11799;47.740;-3.390;2023-11-18T05:16:29;101704.88;;;13.74;100.00
23261;BME280;11799;47.740;-3.390;2023-11-18T05:18:55;101713.56;;;13.76;100.00
23261;BME280;11799;47.740;-3.390;2023-11-18T05:21:21;101699.31;;;13.77;100.00
23261;BME280;11799;47.740;-3.390;2023-11-18T05:23:46;101705.59;;;13.76;100.00
23261;BME280;11799;47.740;-3.390;2023-11-18T05:26:13;101698.44;;;13.66;100.00
23261;BME280;11799;47.740;-3.390;2023-11-18T05:28:39;101702.09;;;13.76;100.00
23261;BME280;11799;47.740;-3.390;2023-11-18T05:31:04;101692.44;;;13.75;100.00
23261;BME280;11799;47.740;-3.390;2023-11-18T05:33:31;101698.72;;;13.74;100.00
23261;BME280;11799;47.740;-3.390;2023-11-18T05:35:59;101684.47;;;13.75;100.00
23261;BME280;11799;47.740;-3.390;2023-11-18T05:38:25;101690.63;;;13.75;100.00
23261;BME280;11799;47.740;-3.390;2023-11-18T05:40:53;101684.34;;;13.76;100.00
23261;BME280;11799;47.740;-3.390;2023-11-18T05:43:23;101691.34;;;13.77;100.00
23261;BME280;11799;47.740;-3.390;2023-11-18T05:45:51;101698.47;;;13.77;100.00
23261;BME280;11799;47.740;-3.390;2023-11-18T05:48:43;101722.13;;;13.80;100.00
23261;BME280;11799;47.740;-3.390;2023-11-18T05:51:09;101724.78;;;13.80;100.00
23261;BME280;11799;47.740;-3.390;2023-11-18T05:53:43;101734.44;;;13.81;100.00
23261;BME280;11799;47.740;-3.390;2023-11-18T05:56:11;101736.97;;;13.82;100.00
23261;BME280;11799;47.740;-3.390;2023-11-18T05:58:37;101734.22;;;13.84;100.00
23261;BME280;11799;47.740;-3.390;2023-11-18T06:01:05;101729.97;;;13.81;100.00
23261;BME280;11799;47.740;-3.390;2023-11-18T06:03:37;101736.03;;;13.83;100.00
23261;BME280;11799;47.740;-3.390;2023-11-18T06:06:14;101724.44;;;13.84;100.00
23261;BME280;11799;47.740;-3.390;2023-11-18T06:08:41;101732.41;;;13.84;100.00
23261;BME280;11799;47.740;-3.390;2023-11-18T06:11:11;101704.75;;;13.76;100.00
23261;BME280;11799;47.740;-3.390;2023-11-18T06:13:40;101718.75;;;13.89;100.00
23261;BME280;11799;47.740;-3.390;2023-11-18T06:16:09;101715.25;;;13.88;100.00
23261;BME280;11799;47.740;-3.390;2023-11-18T06:18:35;101716.81;;;13.91;100.00
23261;BME280;11799;47.740;-3.390;2023-11-18T06:21:01;101706.31;;;13.89;100.00
23261;BME280;11799;47.740;-3.390;2023-11-18T06:23:27;101699.06;;;13.92;100.00
23261;BME280;11799;47.740;-3.390;2023-11-18T06:25:52;101701.59;;;13.93;100.00
23261;BME280;11799;47.740;-3.390;2023-11-18T06:28:18;101711.25;;;13.94;100.00
23261;BME280;11799;47.740;-3.390;2023-11-18T06:30:44;101705.22;;;13.92;100.00
23261;BME280;11799;47.740;-3.390;2023-11-18T06:33:09;101703.91;;;13.98;100.00
23261;BME280;11799;47.740;-3.390;2023-11-18T06:35:37;101712.72;;;13.98;100.00
23261;BME280;11799;47.740;-3.390;2023-11-18T06:38:02;101712.72;;;13.98;100.00
23261;BME280;11799;47.740;-3.390;2023-11-18T06:40:28;101709.09;;;13.99;100.00
23261;BME280;11799;47.740;-3.390;2023-11-18T06:42:53;101707.28;;;14.00;100.00
23261;BME280;11799;47.740;-3.390;2023-11-18T06:45:19;101701.00;;;14.01;100.00
23261;BME280;11799;47.740;-3.390;2023-11-18T06:47:47;101694.72;;;14.02;100.00
23261;BME280;11799;47.740;-3.390;2023-11-18T06:50:14;101688.81;;;13.98;100.00
23261;BME280;11799;47.740;-3.390;2023-11-18T06:52:41;101692.94;;;14.02;100.00
23261;BME280;11799;47.740;-3.390;2023-11-18T06:55:10;101688.47;;;14.03;100.00
23261;BME280;11799;47.740;-3.390;2023-11-18T06:57:36;101667.31;;;13.90;100.00
23261;BME280;11799;47.740;-3.390;2023-11-18T07:00:03;101695.59;;;14.02;100.00
23261;BME280;11799;47.740;-3.390;2023-11-18T07:02:33;101694.63;;;14.03;100.00
23261;BME280;11799;47.740;-3.390;2023-11-18T07:04:59;101677.72;;;13.93;100.00
23261;BME280;11799;47.740;-3.390;2023-11-18T07:07:24;101690.03;;;14.05;100.00
23261;BME280;11799;47.740;-3.390;2023-11-18T07:09:50;101695.34;;;14.05;100.00
23261;BME280;11799;47.740;-3.390;2023-11-18T07:12:17;101701.75;;;14.03;100.00
23261;BME280;11799;47.740;-3.390;2023-11-18T07:14:44;101707.66;;;14.06;100.00
23261;BME280;11799;47.740;-3.390;2023-11-18T07:17:10;101699.69;;;14.06;100.00
23261;BME280;11799;47.740;-3.390;2023-11-18T07:19:35;101692.81;;;14.04;100.00
23261;BME280;11799;47.740;-3.390;2023-11-18T07:22:01;101692.44;;;14.08;100.00
23261;BME280;11799;47.740;-3.390;2023-11-18T07:24:27;101680.63;;;14.01;100.00
23261;BME280;11799;47.740;-3.390;2023-11-18T07:26:55;101681.47;;;14.13;100.00
23261;BME280;11799;47.740;-3.390;2023-11-18T07:29:20;101692.19;;;14.11;100.00
23261;BME280;11799;47.740;-3.390;2023-11-18T07:31:48;101694.13;;;14.09;100.00
23261;BME280;11799;47.740;-3.390;2023-11-18T07:34:14;101704.53;;;14.12;100.00
23261;BME280;11799;47.740;-3.390;2023-11-18T07:36:40;101705.97;;;14.16;100.00
23261;BME280;11799;47.740;-3.390;2023-11-18T07:39:06;101724.44;;;14.18;100.00
23261;BME280;11799;47.740;-3.390;2023-11-18T07:41:41;101720.09;;;14.17;100.00
23261;BME280;11799;47.740;-3.390;2023-11-18T07:44:07;101713.09;;;14.05;100.00
23261;BME280;11799;47.740;-3.390;2023-11-18T07:46:36;101721.06;;;14.16;100.00
23261;BME280;11799;47.740;-3.390;2023-11-18T07:49:04;101719.13;;;14.18;100.00
23261;BME280;11799;47.740;-3.390;2023-11-18T07:51:30;101718.28;;;14.17;100.00
23261;BME280;11799;47.740;-3.390;2023-11-18T07:53:55;101722.63;;;14.18;100.00
23261;BME280;11799;47.740;-3.390;2023-11-18T07:56:20;101725.53;;;14.15;100.00
23261;BME280;11799;47.740;-3.390;2023-11-18T07:58:49;101734.94;;;14.19;100.00
23261;BME280;11799;47.740;-3.390;2023-11-18T08:01:16;101716.97;;;14.12;100.00
23261;BME280;11799;47.740;-3.390;2023-11-18T08:03:42;101741.00;;;14.21;100.00
23261;BME280;11799;47.740;-3.390;2023-11-18T08:06:08;101741.84;;;14.22;100.00
23261;BME280;11799;47.740;-3.390;2023-11-18T08:08:34;101739.19;;;14.22;100.00
23261;BME280;11799;47.740;-3.390;2023-11-18T08:11:01;101734.00;;;14.20;100.00
23261;BME280;11799;47.740;-3.390;2023-11-18T08:13:27;101745.09;;;14.26;100.00
23261;BME280;11799;47.740;-3.390;2023-11-18T08:15:52;101733.50;;;14.27;100.00
23261;BME280;11799;47.740;-3.390;2023-11-18T08:18:18;101730.84;;;14.27;100.00
23261;BME280;11799;47.740;-3.390;2023-11-18T08:20:44;101741.47;;;14.27;100.00
23261;BME280;11799;47.740;-3.390;2023-11-18T08:23:10;101733.50;;;14.27;100.00
23261;BME280;11799;47.740;-3.390;2023-11-18T08:25:35;101744.97;;;14.27;100.00
23261;BME280;11799;47.740;-3.390;2023-11-18T08:28:01;101759.09;;;14.28;100.00
23261;BME280;11799;47.740;-3.390;2023-11-18T08:30:27;101753.78;;;14.28;100.00
23261;BME280;11799;47.740;-3.390;2023-11-18T08:32:53;101757.28;;;14.28;100.00
23261;BME280;11799;47.740;-3.390;2023-11-18T08:35:18;101747.50;;;14.29;100.00
23261;BME280;11799;47.740;-3.390;2023-11-18T08:37:46;101748.47;;;14.28;100.00
23261;BME280;11799;47.740;-3.390;2023-11-18T08:40:12;101754.41;;;14.31;100.00
23261;BME280;11799;47.740;-3.390;2023-11-18T08:42:46;101748.25;;;14.31;100.00
23261;BME280;11799;47.740;-3.390;2023-11-18T08:45:22;101734.59;;;14.35;100.00
23261;BME280;11799;47.740;-3.390;2023-11-18T08:47:53;101737.38;;;14.34;100.00
23261;BME280;11799;47.740;-3.390;2023-11-18T08:50:18;101724.09;;;14.23;100.00
23261;BME280;11799;47.740;-3.390;2023-11-18T08:52:45;101740.88;;;14.34;100.00
23261;BME280;11799;47.740;-3.390;2023-11-18T08:55:18;101746.06;;;14.36;100.00
23261;BME280;11799;47.740;-3.390;2023-11-18T08:57:51;101742.56;;;14.35;100.00
23261;BME280;11799;47.740;-3.390;2023-11-18T09:00:30;101746.06;;;14.36;100.00
23261;BME280;11799;47.740;-3.390;2023-11-18T09:03:25;101734.47;;;14.37;100.00
23261;BME280;11799;47.740;-3.390;2023-11-18T09:05:55;101730.97;;;14.36;100.00
23261;BME280;11799;47.740;-3.390;2023-11-18T09:08:45;101735.31;;;14.37;100.00
23261;BME280;11799;47.740;-3.390;2023-11-18T09:11:13;101732.66;;;14.37;100.00
23261;BME280;11799;47.740;-3.390;2023-11-18T09:13:46;101726.63;;;14.35;100.00
23261;BME280;11799;47.740;-3.390;2023-11-18T09:16:20;101722.88;;;14.38;100.00
23261;BME280;11799;47.740;-3.390;2023-11-18T09:18:51;101721.06;;;14.38;100.00
23261;BME280;11799;47.740;-3.390;2023-11-18T09:21:16;101717.56;;;14.38;100.00
23261;BME280;11799;47.740;-3.390;2023-11-18T09:23:50;101714.66;;;14.41;100.00
23261;BME280;11799;47.740;-3.390;2023-11-18T09:26:16;101712.13;;;14.39;100.00
23261;BME280;11799;47.740;-3.390;2023-11-18T09:28:42;101711.06;;;14.42;100.00
23261;BME280;11799;47.740;-3.390;2023-11-18T09:31:10;101717.09;;;14.44;100.00
23261;BME280;11799;47.740;-3.390;2023-11-18T09:33:40;101730.25;;;14.45;100.00
23261;BME280;11799;47.740;-3.390;2023-11-18T09:36:11;101724.09;;;14.45;100.00
23261;BME280;11799;47.740;-3.390;2023-11-18T09:38:39;101731.38;;;14.43;100.00
23261;BME280;11799;47.740;-3.390;2023-11-18T09:41:09;101721.56;;;14.43;100.00
23261;BME280;11799;47.740;-3.390;2023-11-18T09:43:38;101727.75;;;14.44;100.00
23261;BME280;11799;47.740;-3.390;2023-11-18T09:46:14;101712.75;;;14.43;100.00
23261;BME280;11799;47.740;-3.390;2023-11-18T09:48:52;101708.75;;;14.37;100.00
23261;BME280;11799;47.740;-3.390;2023-11-18T09:51:22;101710.78;;;14.45;100.00
23261;BME280;11799;47.740;-3.390;2023-11-18T09:53:51;101708.88;;;14.47;100.00
23261;BME280;11799;47.740;-3.390;2023-11-18T09:56:35;101707.28;;;14.44;100.00
23261;BME280;11799;47.740;-3.390;2023-11-18T09:59:18;101707.03;;;14.47;100.00
23261;BME280;11799;47.740;-3.390;2023-11-18T10:01:54;101714.06;;;14.48;100.00
23261;BME280;11799;47.740;-3.390;2023-11-18T10:04:23;101708.63;;;14.50;100.00
23261;BME280;11799;47.740;-3.390;2023-11-18T10:06:53;101708.63;;;14.50;100.00
23261;BME280;11799;47.740;-3.390;2023-11-18T10:09:19;101695.94;;;14.53;100.00
23261;BME280;11799;47.740;-3.390;2023-11-18T10:11:54;101696.91;;;14.52;100.00
23261;BME280;11799;47.740;-3.390;2023-11-18T10:14:34;101690.00;;;14.50;100.00
23261;BME280;11799;47.740;-3.390;2023-11-18T10:17:04;101652.59;;;14.31;100.00
23261;BME280;11799;47.740;-3.390;2023-11-18T10:22:24;101695.69;;;14.57;100.00
23261;BME280;11799;47.740;-3.390;2023-11-18T10:24:50;101694.84;;;14.56;100.00
23261;BME280;11799;47.740;-3.390;2023-11-18T10:27:28;101694.59;;;14.59;100.00
23261;BME280;11799;47.740;-3.390;2023-11-18T10:29:57;101694.00;;;14.56;100.00
23261;BME280;11799;47.740;-3.390;2023-11-18T10:32:23;101703.53;;;14.58;100.00
23261;BME280;11799;47.740;-3.390;2023-11-18T10:34:56;101679.25;;;14.51;100.00
23261;BME280;11799;47.740;-3.390;2023-11-18T10:37:22;101699.78;;;14.61;100.00
23261;BME280;11799;47.740;-3.390;2023-11-18T10:39:48;101699.91;;;14.59;100.00
23261;BME280;11799;47.740;-3.390;2023-11-18T10:42:19;101694.59;;;14.59;100.00
23261;BME280;11799;47.740;-3.390;2023-11-18T10:44:54;101701.84;;;14.57;100.00
23261;BME280;11799;47.740;-3.390;2023-11-18T10:47:24;101694.84;;;14.56;100.00
23261;BME280;11799;47.740;-3.390;2023-11-18T10:49:51;101701.84;;;14.57;100.00
23261;BME280;11799;47.740;-3.390;2023-11-18T10:52:17;101698.47;;;14.55;100.00
23261;BME280;11799;47.740;-3.390;2023-11-18T10:54:53;101695.69;;;14.57;100.00
23261;BME280;11799;47.740;-3.390;2023-11-18T10:57:24;101708.72;;;14.60;100.00
23261;BME280;11799;47.740;-3.390;2023-11-18T11:00:04;101692.78;;;14.60;100.00
23261;BME280;11799;47.740;-3.390;2023-11-18T11:02:39;101692.78;;;14.60;100.00
23261;BME280;11799;47.740;-3.390;2023-11-18T11:05:09;101678.50;;;14.61;100.00
23261;BME280;11799;47.740;-3.390;2023-11-18T11:07:43;101685.66;;;14.60;100.00
23261;BME280;11799;47.740;-3.390;2023-11-18T11:10:10;101683.00;;;14.60;100.00
23261;BME280;11799;47.740;-3.390;2023-11-18T11:12:43;101674.66;;;14.53;100.00
23261;BME280;11799;47.740;-3.390;2023-11-18T11:15:29;101681.31;;;14.59;100.00
23261;BME280;11799;47.740;-3.390;2023-11-18T11:17:57;101672.34;;;14.60;100.00
23261;BME280;11799;47.740;-3.390;2023-11-18T11:20:34;101669.69;;;14.60;100.00
23261;BME280;11799;47.740;-3.390;2023-11-18T11:26:07;101657.25;;;14.61;100.00
23261;BME280;11799;47.740;-3.390;2023-11-18T11:31:47;101645.41;;;14.65;100.00
23261;BME280;11799;47.740;-3.390;2023-11-18T11:34:18;101645.28;;;14.66;100.00
23261;BME280;11799;47.740;-3.390;2023-11-18T11:36:50;101638.16;;;14.67;100.00
23261;BME280;11799;47.740;-3.390;2023-11-18T11:39:19;101640.22;;;14.63;100.00
23261;BME280;11799;47.740;-3.390;2023-11-18T11:41:52;101663.03;;;14.66;100.00
23261;BME280;11799;47.740;-3.390;2023-11-18T11:44:20;101665.56;;;14.67;100.00
23261;BME280;11799;47.740;-3.390;2023-11-18T11:46:49;101650.47;;;14.68;100.00
23261;BME280;11799;47.740;-3.390;2023-11-18T11:49:20;101644.81;;;14.61;100.00
23261;BME280;11799;47.740;-3.390;2023-11-18T11:55:01;101643.22;;;14.70;100.00
23261;BME280;11799;47.740;-3.390;2023-11-18T11:57:28;101639.00;;;14.67;100.00
23261;BME280;11799;47.740;-3.390;2023-11-18T11:59:57;101640.56;;;14.70;100.00
23261;BME280;11799;47.740;-3.390;2023-11-18T12:02:25;101627.97;;;14.72;100.00
23261;BME280;11799;47.740;-3.390;2023-11-18T12:04:55;101627.84;;;14.73;100.00
23261;BME280;11799;47.740;-3.390;2023-11-18T12:07:25;101637.50;;;14.74;100.00
23261;BME280;11799;47.740;-3.390;2023-11-18T12:09:59;101622.53;;;14.73;100.00
23261;BME280;11799;47.740;-3.390;2023-11-18T12:12:27;101627.84;;;14.73;100.00
23261;BME280;11799;47.740;-3.390;2023-11-18T12:14:57;101618.06;;;14.74;100.00
23261;BME280;11799;47.740;-3.390;2023-11-18T12:20:45;101611.91;;;14.73;100.00
23261;BME280;11799;47.740;-3.390;2023-11-18T12:23:19;101610.94;;;14.74;100.00
23261;BME280;11799;47.740;-3.390;2023-11-18T12:25:49;101623.50;;;14.72;100.00
23261;BME280;11799;47.740;-3.390;2023-11-18T12:28:21;101624.22;;;14.74;100.00
23261;BME280;11799;47.740;-3.390;2023-11-18T12:30:55;101617.22;;;14.73;100.00
23261;BME280;11799;47.740;-3.390;2023-11-18T12:33:26;101623.25;;;14.75;100.00
23261;BME280;11799;47.740;-3.390;2023-11-18T12:41:34;101619.63;;;14.76;100.00
23261;BME280;11799;47.740;-3.390;2023-11-18T12:44:24;101619.63;;;14.76;100.00
23261;BME280;11799;47.740;-3.390;2023-11-18T12:46:59;101612.63;;;14.75;100.00
23261;BME280;11799;47.740;-3.390;2023-11-18T12:49:37;101592.09;;;14.66;100.00
23261;BME280;11799;47.740;-3.390;2023-11-18T12:52:07;101613.47;;;14.76;100.00
23261;BME280;11799;47.740;-3.390;2023-11-18T12:54:34;101608.84;;;14.78;100.00
23261;BME280;11799;47.740;-3.390;2023-11-18T12:57:03;101618.66;;;14.77;100.00
23261;BME280;11799;47.740;-3.390;2023-11-18T12:59:35;101611.66;;;14.76;100.00
23261;BME280;11799;47.740;-3.390;2023-11-18T13:02:02;101620.59;;;14.75;100.00